Time;durP1;ratioP1;P1;durP2;ratioP2;P2;SDS_P1;SDS_P2;PMS_P1;PMS_P2;Temp;Humidity;BMP_temperature;BMP_pressure;BME280_temperature;BME280_humidity;BME280_pressure;Samples;Min_cycle;Max_cycle;Signal;HPM_P1;HPM_P2
2022/11/04 00:03:19;;;;;;;33.67;22.00;;;;;;;10.54;100.00;99675.09;12756477;23;20048;-94
2022/11/04 00:08:22;;;;;;;34.80;21.27;;;;;;;10.40;100.00;99641.91;12804277;23;20020;-94
2022/11/04 00:13:23;;;;;;;31.95;20.45;;;;;;;10.61;100.00;99678.38;12788443;23;20028;-94
2022/11/04 00:18:23;;;;;;;34.80;21.63;;;;;;;10.58;100.00;99676.19;12806301;23;20504;-94
2022/11/04 00:28:53;;;;;;;29.43;18.83;;;;;;;10.45;100.00;99632.78;12719415;23;20020;-93
2022/11/04 00:33:54;;;;;;;30.20;19.27;;;;;;;10.68;100.00;99672.56;12754933;23;20032;-93
2022/11/04 00:38:55;;;;;;;25.05;18.35;;;;;;;10.66;100.00;99661.00;12805726;23;20017;-94
2022/11/04 00:44:00;;;;;;;27.95;19.42;;;;;;;10.63;100.00;99656.09;12778228;23;20009;-93
2022/11/04 00:49:00;;;;;;;30.70;19.80;;;;;;;10.68;100.00;99678.06;12779198;23;20032;-93
2022/11/04 00:54:01;;;;;;;29.13;19.13;;;;;;;10.65;100.00;99684.97;12777185;23;20012;-94
2022/11/04 00:59:02;;;;;;;28.88;18.13;;;;;;;10.55;100.00;99685.03;12754198;23;20023;-94
2022/11/04 01:04:02;;;;;;;25.02;17.38;;;;;;;10.62;100.00;99704.78;12780347;23;20024;-93
2022/11/04 01:09:07;;;;;;;19.90;14.00;;;;;;;10.58;100.00;99703.72;12779925;23;20467;-93
2022/11/04 01:14:07;;;;;;;18.85;12.95;;;;;;;10.52;100.00;99715.84;12757147;23;20028;-94
2022/11/04 01:19:08;;;;;;;15.88;11.50;;;;;;;10.38;100.00;99714.84;12763151;23;20104;-94
2022/11/04 01:24:09;;;;;;;9.18;7.28;;;;;;;10.37;100.00;99740.69;12753260;23;20013;-94
2022/11/04 01:29:09;;;;;;;8.63;6.53;;;;;;;10.31;100.00;99745.38;12778033;23;20391;-92
2022/11/04 01:34:10;;;;;;;8.65;5.88;;;;;;;10.26;100.00;99765.44;12706440;23;20089;-81
2022/11/04 01:39:11;;;;;;;6.63;5.28;;;;;;;10.18;100.00;99777.03;12776876;23;20070;-94
2022/11/04 01:44:49;;;;;;;9.95;4.50;;;;;;;10.08;100.00;99782.53;12778547;23;20016;-94
2022/11/04 01:49:52;;;;;;;3.38;2.80;;;;;;;9.97;100.00;99808.41;12806817;23;20032;-93
2022/11/04 01:54:54;;;;;;;4.18;2.25;;;;;;;9.83;100.00;99786.97;12754825;23;20029;-95
2022/11/04 01:59:54;;;;;;;4.75;2.30;;;;;;;9.81;100.00;99800.16;12806626;23;20073;-92
2022/11/04 02:04:55;;;;;;;3.72;1.80;;;;;;;9.83;100.00;99788.91;12759217;23;20017;-93
2022/11/04 02:09:55;;;;;;;2.42;1.20;;;;;;;9.67;100.00;99788.06;12764469;23;20041;-92
2022/11/04 02:14:56;;;;;;;2.08;0.70;;;;;;;9.76;100.00;99813.91;12754114;23;20025;-94
2022/11/04 02:20:05;;;;;;;4.18;0.73;;;;;;;9.75;100.00;99823.25;12764725;23;20017;-93
2022/11/04 02:25:27;;;;;;;4.70;1.60;;;;;;;9.74;100.00;99837.28;12755768;23;20092;-94
2022/11/04 02:30:30;;;;;;;3.70;0.70;;;;;;;9.70;100.00;99859.00;12808463;23;20048;-94
2022/11/04 02:35:46;;;;;;;3.20;0.60;;;;;;;9.70;100.00;99870.81;12758508;23;20017;-94
2022/11/04 02:40:59;;;;;;;2.70;0.60;;;;;;;9.70;100.00;99883.72;12782446;23;20387;-93
2022/11/04 02:46:13;;;;;;;3.42;0.55;;;;;;;9.63;100.00;99877.66;12808271;23;20031;-91
2022/11/04 02:51:36;;;;;;;3.45;0.82;;;;;;;9.69;100.00;99904.06;12784804;23;20051;-94
2022/11/04 02:56:38;;;;;;;2.45;0.85;;;;;;;9.69;100.00;99904.06;12782860;23;20029;-93
2022/11/04 03:01:40;;;;;;;3.38;0.93;;;;;;;9.74;100.00;99930.75;12733685;23;20082;-94
2022/11/04 03:06:44;;;;;;;7.03;1.02;;;;;;;9.75;100.00;99935.94;12732983;23;20033;-94
2022/11/04 03:11:45;;;;;;;3.80;0.80;;;;;;;9.75;100.00;99935.94;12732161;23;20017;-93
2022/11/04 03:16:50;;;;;;;3.83;0.80;;;;;;;9.72;100.00;99928.25;12733577;23;20072;-94
2022/11/04 03:22:02;;;;;;;6.15;0.73;;;;;;;9.72;100.00;99931.00;12764723;23;20017;-94
2022/11/04 03:27:21;;;;;;;1.20;0.63;;;;;;;9.83;100.00;99962.09;12784864;23;20021;-94
2022/11/04 03:32:28;;;;;;;5.03;0.98;;;;;;;9.79;100.00;99959.03;12783129;23;20025;-94
2022/11/04 03:37:28;;;;;;;3.72;0.50;;;;;;;9.79;100.00;99970.03;12781484;23;20017;-94
2022/11/04 03:42:29;;;;;;;2.60;0.52;;;;;;;9.77;100.00;99991.47;12732355;23;20017;-94
2022/11/04 03:47:30;;;;;;;2.58;0.20;;;;;;;9.73;100.00;99982.13;12730479;23;20543;-94
2022/11/04 03:52:30;;;;;;;1.38;0.35;;;;;;;9.71;100.00;100000.81;12787383;23;20027;-94
2022/11/04 03:57:38;;;;;;;2.05;0.30;;;;;;;9.67;100.00;100014.28;12808483;23;20013;-94
2022/11/04 04:02:44;;;;;;;3.40;0.43;;;;;;;9.68;100.00;100012.34;12805470;23;20100;-93
2022/11/04 04:08:17;;;;;;;1.08;0.40;;;;;;;9.69;100.00;100022.22;12808515;23;20039;-93
2022/11/04 04:13:26;;;;;;;2.38;0.60;;;;;;;9.70;100.00;100037.66;12786523;23;20031;-93
2022/11/04 04:18:34;;;;;;;3.13;0.80;;;;;;;9.54;100.00;100014.75;12805713;23;20020;-93
2022/11/04 04:28:54;;;;;;;3.50;0.98;;;;;;;9.59;100.00;100044.19;12816894;23;20064;-93
2022/11/04 04:33:54;;;;;;;3.17;1.38;;;;;;;9.64;100.00;100063.44;12757144;23;20040;-94
2022/11/04 04:49:58;;;;;;;2.30;0.60;;;;;;;9.45;100.00;100077.66;12807155;23;20041;-94
2022/11/04 04:54:59;;;;;;;2.97;0.50;;;;;;;9.35;100.00;100098.75;12730314;23;20025;-93
2022/11/04 04:59:59;;;;;;;2.65;0.30;;;;;;;9.16;100.00;100101.91;12806637;23;20249;-93
2022/11/04 05:05:00;;;;;;;1.35;0.40;;;;;;;9.25;100.00;100121.47;12754908;23;20443;-94
2022/11/04 05:10:00;;;;;;;2.85;0.57;;;;;;;8.60;100.00;100032.84;12803902;23;20020;-96
2022/11/04 05:15:01;;;;;;;0.95;0.40;;;;;;;9.18;100.00;100129.13;12754489;23;20021;-94
2022/11/04 05:20:01;;;;;;;2.95;0.50;;;;;;;9.09;100.00;100124.13;12732192;23;20009;-96
2022/11/04 05:25:02;;;;;;;1.13;0.40;;;;;;;9.16;100.00;100140.38;12758821;23;20009;-94
2022/11/04 05:30:03;;;;;;;4.72;0.68;;;;;;;9.11;100.00;100125.75;12765422;23;20025;-91
2022/11/04 05:35:04;;;;;;;2.35;0.50;;;;;;;9.10;100.00;100130.44;12794202;23;20044;-94
2022/11/04 05:40:05;;;;;;;5.32;1.52;;;;;;;9.00;100.00;100131.16;12780973;23;20462;-94
2022/11/04 05:45:06;;;;;;;3.85;0.70;;;;;;;9.01;100.00;100156.69;12729499;23;20092;-94
2022/11/04 05:50:07;;;;;;;3.92;0.60;;;;;;;8.88;100.00;100156.03;12730773;23;20017;-95
2022/11/04 05:55:07;;;;;;;2.90;0.55;;;;;;;8.73;100.00;100155.91;12837785;23;20036;-94
2022/11/04 06:00:09;;;;;;;4.13;1.08;;;;;;;8.51;100.00;100155.94;12812837;23;20451;-93
2022/11/04 06:05:09;;;;;;;4.43;0.60;;;;;;;8.47;100.00;100161.16;12815836;23;20009;-95
2022/11/04 06:10:10;;;;;;;3.65;0.85;;;;;;;8.45;100.00;100211.84;12817263;23;20020;-95
2022/11/04 06:15:10;;;;;;;6.18;1.23;;;;;;;8.39;100.00;100197.22;12839343;23;20044;-94
2022/11/04 06:20:11;;;;;;;4.32;0.40;;;;;;;8.34;100.00;100199.91;12865865;23;20023;-95
2022/11/04 06:25:11;;;;;;;2.22;0.40;;;;;;;8.31;100.00;100216.03;12845247;23;20008;-93
2022/11/04 06:30:12;;;;;;;5.43;0.82;;;;;;;8.24;100.00;100227.19;12818414;23;20286;-93
2022/11/04 06:35:12;;;;;;;1.33;0.60;;;;;;;8.02;100.00;100210.72;12852183;23;20028;-94
2022/11/04 06:40:13;;;;;;;5.60;0.70;;;;;;;8.11;100.00;100227.59;12815793;23;20039;-95
2022/11/04 06:45:13;;;;;;;1.65;0.50;;;;;;;8.12;100.00;100226.50;12840476;23;20388;-92
2022/11/04 06:50:14;;;;;;;4.38;0.73;;;;;;;8.19;100.00;100240.84;12839292;23;20013;-95
2022/11/04 06:55:14;;;;;;;2.30;0.95;;;;;;;8.21;100.00;100247.75;12803386;23;20021;-95
2022/11/04 07:00:15;;;;;;;4.25;0.57;;;;;;;8.43;100.00;100280.69;12807252;23;20017;-93
2022/11/04 07:05:16;;;;;;;6.13;0.90;;;;;;;7.94;100.00;100212.00;12804785;23;20013;-95
2022/11/04 07:10:16;;;;;;;4.93;0.80;;;;;;;8.48;100.00;100299.97;12780218;23;20017;-79
2022/11/04 07:15:17;;;;;;;7.25;1.23;;;;;;;8.11;100.00;100246.78;12774100;23;20044;-79
2022/11/04 07:20:17;;;;;;;8.15;1.50;;;;;;;8.39;100.00;100314.31;12799601;23;20013;-79
2022/11/04 07:25:18;;;;;;;6.30;1.60;;;;;;;8.14;100.00;100301.09;12799990;23;20036;-80
2022/11/04 07:30:19;;;;;;;6.55;1.48;;;;;;;8.05;100.00;100301.53;12799683;23;20017;-80
2022/11/04 07:35:19;;;;;;;7.93;2.28;;;;;;;8.01;100.00;100322.28;12798829;23;20076;-80
2022/11/04 07:40:20;;;;;;;4.00;1.05;;;;;;;8.16;100.00;100354.59;12799472;23;20020;-80
2022/11/04 07:45:20;;;;;;;6.18;1.30;;;;;;;8.23;100.00;100357.19;12796967;23;20017;-80
2022/11/04 07:50:21;;;;;;;3.33;1.10;;;;;;;8.26;100.00;100357.50;12773669;23;20017;-80
2022/11/04 07:55:21;;;;;;;3.88;1.02;;;;;;;8.30;100.00;100379.75;12798201;23;20021;-80
2022/11/04 08:00:22;;;;;;;3.67;1.35;;;;;;;8.23;100.00;100387.34;12803918;23;20040;-79
2022/11/04 08:05:22;;;;;;;5.38;1.63;;;;;;;7.96;100.00;100357.00;12801469;23;20009;-79
2022/11/04 08:10:23;;;;;;;3.30;0.95;;;;;;;8.15;100.00;100382.28;12798893;23;20013;-80
2022/11/04 08:15:23;;;;;;;3.67;1.05;;;;;;;8.20;100.00;100396.88;12750975;23;20016;-80
2022/11/04 08:20:24;;;;;;;1.75;1.00;;;;;;;7.94;100.00;100335.34;12797313;23;20017;-80
2022/11/04 08:25:24;;;;;;;3.95;1.08;;;;;;;8.09;100.00;100351.22;12771022;23;20009;-80
2022/11/04 08:30:24;;;;;;;3.90;1.33;;;;;;;8.39;100.00;100399.34;12800660;23;20006;-80
2022/11/04 08:35:25;;;;;;;3.53;1.48;;;;;;;8.56;100.00;100416.69;12771926;23;20044;-79
2022/11/04 08:40:25;;;;;;;2.80;1.00;;;;;;;8.66;100.00;100422.31;12772474;23;20024;-80
2022/11/04 08:45:26;;;;;;;3.97;1.40;;;;;;;8.76;100.00;100429.00;12773603;23;20013;-79
2022/11/04 08:50:29;;;;;;;4.07;2.30;;;;;;;8.88;100.00;100425.06;12772457;23;20013;-80
2022/11/04 08:55:30;;;;;;;4.43;1.35;;;;;;;8.93;100.00;100427.06;12797662;23;20016;-79
2022/11/04 09:00:31;;;;;;;3.67;1.42;;;;;;;8.75;100.00;100405.41;12747280;23;20024;-79
2022/11/04 09:05:32;;;;;;;6.47;1.63;;;;;;;8.91;100.00;100415.50;12772846;23;20024;-79
2022/11/04 09:10:33;;;;;;;3.58;1.30;;;;;;;9.08;100.00;100427.25;12748994;23;20449;-79
2022/11/04 09:15:33;;;;;;;6.00;1.45;;;;;;;9.25;100.00;100440.91;12748166;23;20021;-79
2022/11/04 09:20:37;;;;;;;4.85;1.52;;;;;;;9.28;100.00;100447.81;12771054;23;20017;-79
2022/11/04 09:25:37;;;;;;;3.63;1.20;;;;;;;9.19;100.00;100417.22;12768969;23;20047;-79
2022/11/04 09:30:38;;;;;;;6.25;1.85;;;;;;;9.61;100.00;100470.72;12797403;23;20009;-79
2022/11/04 09:35:38;;;;;;;3.00;1.10;;;;;;;9.57;100.00;100444.84;12746914;23;20013;-79
2022/11/04 09:40:39;;;;;;;2.05;0.60;;;;;;;9.89;100.00;100483.41;12754653;23;20020;-80
2022/11/04 09:45:41;;;;;;;6.20;1.05;;;;;;;9.89;100.00;100486.97;12747046;23;20519;-80
2022/11/04 09:50:49;;;;;;;2.33;1.00;;;;;;;10.00;100.00;100504.41;12744700;23;20339;-81
2022/11/04 09:55:56;;;;;;;3.10;0.65;;;;;;;10.20;100.00;100494.69;12770635;23;20021;-79
2022/11/04 10:00:59;;;;;;;;;;;;;;;10.39;100.00;100506.19;12774847;23;20126;-78
2022/11/04 10:06:18;;;;;;;6.40;1.92;;;;;;;10.60;100.00;100507.97;12795305;23;19939;-77
2022/11/04 10:11:46;;;;;;;5.30;0.82;;;;;;;10.93;100.00;100503.25;12795529;23;20013;-78
2022/11/04 10:17:28;;;;;;;1.65;0.60;;;;;;;11.25;100.00;100489.41;12746554;23;20351;-80
2022/11/04 10:22:34;;;;;;;4.05;1.00;;;;;;;11.86;100.00;100516.34;12751885;23;20036;-79
2022/11/04 10:27:37;;;;;;;2.95;0.50;;;;;;;12.36;100.00;100514.00;12748036;23;20013;-78
2022/11/04 10:32:46;;;;;;;3.72;0.73;;;;;;;12.87;100.00;100529.72;12771910;23;20031;-79
2022/11/04 10:37:47;;;;;;;5.13;0.55;;;;;;;12.39;100.00;100458.25;12747305;23;20057;-79
2022/11/04 10:42:47;;;;;;;2.47;0.50;;;;;;;12.59;100.00;100529.19;12747926;23;20057;-78
2022/11/04 10:47:56;;;;;;;5.80;0.70;;;;;;;12.48;100.00;100525.59;12744570;23;20503;-79
2022/11/04 10:53:20;;;;;;;2.67;0.60;;;;;;;12.58;100.00;100524.78;12790978;23;20021;-79
2022/11/04 10:58:23;;;;;;;3.65;0.80;;;;;;;12.59;100.00;100518.16;12708377;23;20331;-79
2022/11/04 11:03:31;;;;;;;1.90;0.70;;;;;;;12.14;100.00;100514.25;12748032;23;20024;-79
2022/11/04 11:08:32;;;;;;;7.97;1.02;;;;;;;11.98;100.00;100529.13;12748993;23;20490;-80
2022/11/04 11:13:35;;;;;;;5.72;0.80;;;;;;;11.70;100.00;100537.56;12750833;23;20048;-79
2022/11/04 11:18:37;;;;;;;4.25;0.70;;;;;;;11.85;100.00;100556.09;12769490;23;20025;-79
2022/11/04 11:23:39;;;;;;;5.65;0.60;;;;;;;11.62;100.00;100542.78;12800987;23;20024;-79
2022/11/04 11:28:46;;;;;;;9.38;1.00;;;;;;;11.75;100.00;100552.47;12746457;23;20009;-80
2022/11/04 11:33:49;;;;;;;4.95;1.10;;;;;;;11.29;100.00;100507.06;12759907;23;20021;-79
2022/11/04 11:39:00;;;;;;;8.07;1.40;;;;;;;11.77;100.00;100580.59;12710116;23;20017;-80
2022/11/04 11:44:24;;;;;;;4.93;0.75;;;;;;;12.46;100.00;100569.25;12797879;23;20073;-80
2022/11/04 11:49:33;;;;;;;4.80;1.20;;;;;;;12.50;100.00;100581.38;12767684;23;20014;-80
2022/11/04 11:54:36;;;;;;;3.88;0.90;;;;;;;12.21;100.00;100588.50;12771463;23;20021;-80
2022/11/04 11:59:52;;;;;;;5.45;1.23;;;;;;;11.82;100.00;100592.47;12771945;23;20028;-79
2022/11/04 12:04:55;;;;;;;3.70;1.00;;;;;;;11.64;100.00;100601.25;12793556;23;20017;-79
2022/11/04 12:10:33;;;;;;;5.88;1.40;;;;;;;11.61;100.00;100596.25;12774135;23;20013;-80
2022/11/04 12:16:00;;;;;;;5.10;1.33;;;;;;;11.88;100.00;100602.47;12796300;23;20017;-80
2022/11/04 12:21:07;;;;;;;2.20;1.00;;;;;;;12.63;100.00;100602.13;12742042;23;20013;-80
2022/11/04 12:26:52;;;;;;;5.50;1.00;;;;;;;12.38;100.00;100599.31;12798750;23;20028;-79
2022/11/04 12:32:11;;;;;;;4.97;1.05;;;;;;;12.18;100.00;100580.78;12619197;23;20071;-80
2022/11/04 12:37:17;;;;;;;6.80;1.30;;;;;;;12.38;100.00;100618.63;12751909;23;20016;-80
2022/11/04 12:42:30;;;;;;;7.75;1.23;;;;;;;12.09;100.00;100641.16;12777656;23;20447;-80
2022/11/04 12:47:35;;;;;;;2.70;0.70;;;;;;;11.15;100.00;100648.34;12748471;23;20023;-79
2022/11/04 12:53:12;;;;;;;3.20;0.68;;;;;;;10.32;100.00;100656.91;12773425;23;20021;-80
2022/11/04 12:58:38;;;;;;;5.13;0.93;;;;;;;10.05;100.00;100654.91;12767847;23;20126;-81
2022/11/04 13:03:50;;;;;;;1.95;0.60;;;;;;;10.78;100.00;100621.59;12767427;23;20651;-81
2022/11/04 13:09:37;;;;;;;2.42;0.47;;;;;;;13.03;100.00;100633.63;12710255;23;20033;-79
2022/11/04 13:15:14;;;;;;;1.88;0.40;;;;;;;14.47;100.00;100635.94;12753254;23;20020;-82
2022/11/04 13:20:25;;;;;;;2.65;0.50;;;;;;;15.37;100.00;100636.69;12750465;23;20065;-81
2022/11/04 13:25:42;;;;;;;2.75;0.63;;;;;;;16.24;100.00;100630.97;12697896;23;20063;-80
2022/11/04 13:31:07;;;;;;;2.88;0.50;;;;;;;16.40;100.00;100622.44;12795811;23;20017;-81
2022/11/04 13:36:45;;;;;;;2.65;0.82;;;;;;;14.88;100.00;100642.09;12767120;23;20023;-80
2022/11/04 13:41:58;;;;;;;4.25;0.70;;;;;;;14.31;100.00;100647.13;12766984;23;20017;-82
2022/11/04 13:47:00;;;;;;;4.40;0.52;;;;;;;14.30;100.00;100576.25;12770304;23;20032;-81
2022/11/04 13:52:12;;;;;;;3.08;0.38;;;;;;;14.51;100.00;100612.09;12718807;23;20032;-81
2022/11/04 13:57:26;;;;;;;11.40;1.38;;;;;;;13.63;100.00;100663.44;12780972;23;20088;-81
2022/11/04 14:02:42;;;;;;;7.22;1.35;;;;;;;13.13;100.00;100655.72;12745816;23;20017;-80
2022/11/04 14:08:00;;;;;;;8.43;1.15;;;;;;;13.75;100.00;100675.03;12743313;23;20069;-80
2022/11/04 14:13:29;;;;;;;3.90;0.70;;;;;;;14.72;100.00;100680.16;12767688;23;20028;-80
2022/11/04 14:18:31;;;;;;;9.10;1.23;;;;;;;14.28;100.00;100658.78;12793011;23;20080;-80
2022/11/04 14:23:31;;;;;;;5.90;0.75;;;;;;;12.98;100.00;100636.41;12695929;23;20013;-81
2022/11/04 14:28:32;;;;;;;4.40;0.70;;;;;;;12.66;100.00;100694.63;12722236;23;20013;-79
2022/11/04 14:33:52;;;;;;;5.55;0.90;;;;;;;11.96;100.00;100707.88;12724174;23;20035;-81
2022/11/04 14:39:11;;;;;;;5.38;0.70;;;;;;;11.63;100.00;100715.38;12725346;23;20025;-80
2022/11/04 14:44:11;;;;;;;5.70;0.98;;;;;;;11.48;100.00;100727.94;12748229;23;20017;-79
2022/11/04 14:49:27;;;;;;;9.23;0.98;;;;;;;11.42;100.00;100733.69;12746313;23;20010;-80
2022/11/04 14:54:29;;;;;;;3.47;0.80;;;;;;;11.40;100.00;100722.94;12782605;23;20029;-81
2022/11/04 14:59:30;;;;;;;6.43;1.17;;;;;;;10.82;100.00;100706.16;12808458;23;20047;-79
2022/11/04 15:04:31;;;;;;;6.40;0.93;;;;;;;10.02;100.00;100653.47;12809960;23;20016;-80
2022/11/04 15:09:34;;;;;;;7.90;1.42;;;;;;;10.58;100.00;100776.38;12834426;23;20360;-80
2022/11/04 15:14:35;;;;;;;4.38;1.02;;;;;;;10.23;100.00;100761.88;12780942;23;20055;-80
2022/11/04 15:19:35;;;;;;;7.43;1.20;;;;;;;10.25;100.00;100798.25;12728983;23;20011;-80
2022/11/04 15:24:36;;;;;;;4.80;1.10;;;;;;;9.74;100.00;100749.91;12782166;23;20024;-81
2022/11/04 15:29:36;;;;;;;2.10;0.93;;;;;;;9.80;100.00;100795.66;12785176;23;20020;-80
2022/11/04 15:34:37;;;;;;;6.00;1.50;;;;;;;9.37;100.00;100767.72;12831754;23;20020;-81
2022/11/04 15:39:42;;;;;;;8.02;2.03;;;;;;;9.06;100.00;100761.69;12809863;23;20039;-81
2022/11/04 15:44:48;;;;;;;7.50;2.70;;;;;;;9.41;100.00;100839.53;12785214;23;20036;-80
2022/11/04 15:49:50;;;;;;;9.40;1.90;;;;;;;8.77;100.00;100780.09;12782817;23;20028;-80
2022/11/04 15:54:56;;;;;;;10.35;1.95;;;;;;;8.90;100.00;100833.88;12781896;23;20024;-81
2022/11/04 16:00:02;;;;;;;6.83;2.50;;;;;;;8.81;100.00;100857.31;12724397;23;20028;-80
2022/11/04 16:05:09;;;;;;;10.93;2.92;;;;;;;8.69;100.00;100871.88;12726099;23;20024;-80
2022/11/04 16:10:31;;;;;;;12.02;2.50;;;;;;;8.56;100.00;100874.91;12773431;23;20017;-80
2022/11/04 16:15:58;;;;;;;8.93;3.40;;;;;;;8.42;100.00;100888.03;12723078;23;20041;-80
2022/11/04 16:20:58;;;;;;;10.90;2.95;;;;;;;8.33;100.00;100888.59;12791623;23;20013;-81
2022/11/04 16:26:00;;;;;;;9.00;2.83;;;;;;;7.98;100.00;100856.53;12771969;23;20020;-80
2022/11/04 16:31:06;;;;;;;13.55;3.85;;;;;;;7.78;100.00;100854.97;12744405;23;20013;-82
2022/11/04 16:36:11;;;;;;;9.05;2.88;;;;;;;8.07;100.00;100912.69;12699224;23;20024;-80
2022/11/04 16:41:12;;;;;;;12.23;3.65;;;;;;;8.03;100.00;100906.00;12703743;23;20020;-80
2022/11/04 16:46:12;;;;;;;12.23;7.68;;;;;;;7.54;100.00;100825.84;12741203;23;20067;-80
2022/11/04 16:51:20;;;;;;;11.27;6.30;;;;;;;8.12;100.00;100915.53;12735712;23;20075;-79
2022/11/04 16:56:22;;;;;;;17.70;8.95;;;;;;;7.85;100.00;100885.00;12728195;23;20096;-80
2022/11/04 17:01:22;;;;;;;14.95;8.95;;;;;;;7.92;100.00;100926.00;12748079;23;20039;-80
2022/11/04 17:06:23;;;;;;;20.45;10.98;;;;;;;7.59;100.00;100897.22;12705456;23;20016;-81
2022/11/04 17:11:23;;;;;;;23.70;11.80;;;;;;;7.83;100.00;100956.53;12768107;23;20005;-80
2022/11/04 17:16:24;;;;;;;22.60;12.32;;;;;;;7.47;100.00;100924.59;12741598;23;20017;-80
2022/11/04 17:21:25;;;;;;;26.77;13.65;;;;;;;7.86;100.00;100961.53;12777263;23;20020;-80
2022/11/04 17:26:25;;;;;;;28.52;12.30;;;;;;;7.75;100.00;100943.16;12746009;23;20027;-80
2022/11/04 17:31:27;;;;;;;21.13;10.13;;;;;;;7.82;100.00;100971.28;12700999;23;20020;-80
2022/11/04 17:36:30;;;;;;;21.73;10.20;;;;;;;7.77;100.00;100976.66;12736659;23;20415;-79
2022/11/04 17:46:52;;;;;;;18.20;11.35;;;;;;;7.52;100.00;100979.50;12721754;23;20037;-80
2022/11/04 17:51:54;;;;;;;23.85;10.85;;;;;;;7.08;100.00;100937.72;12657427;23;20028;-79
2022/11/04 17:56:56;;;;;;;17.23;8.65;;;;;;;7.52;100.00;101020.59;12701853;23;20184;-79
2022/11/04 18:02:02;;;;;;;18.40;8.65;;;;;;;7.21;100.00;100969.59;12772121;23;20032;-79
2022/11/04 18:07:07;;;;;;;15.90;7.85;;;;;;;7.22;100.00;100980.31;12738860;23;20024;-78
2022/11/04 18:17:29;;;;;;;16.42;8.85;;;;;;;6.87;100.00;100956.28;12681503;23;20013;-79
2022/11/04 18:22:31;;;;;;;14.05;6.45;;;;;;;7.20;100.00;101030.91;12757059;23;20013;-78
2022/11/04 18:27:33;;;;;;;19.55;6.03;;;;;;;7.06;100.00;101030.22;12617486;23;20023;-78
2022/11/04 18:32:34;;;;;;;13.27;6.82;;;;;;;6.92;100.00;101021.28;12652887;23;20027;-79
2022/11/04 18:37:36;;;;;;;20.08;7.60;;;;;;;6.46;100.00;101004.25;12608106;23;20016;-78
2022/11/04 18:42:38;;;;;;;30.73;15.68;;;;;;;6.58;100.00;101009.00;12633205;23;20017;-79
2022/11/04 18:47:40;;;;;;;33.10;16.98;;;;;;;6.64;100.00;101041.78;12762041;23;20088;-79
2022/11/04 18:52:40;;;;;;;36.13;13.95;;;;;;;6.56;100.00;101028.38;12708048;23;20458;-79
2022/11/04 18:57:44;;;;;;;21.15;9.50;;;;;;;6.57;100.00;101046.44;12678914;23;20013;-79
2022/11/04 19:02:50;;;;;;;22.00;8.50;;;;;;;5.63;100.00;100900.63;12707287;23;20013;-78
2022/11/04 19:07:51;;;;;;;15.35;8.05;;;;;;;6.35;100.00;101028.78;12679526;23;20024;-79
2022/11/04 19:18:12;;;;;;;21.02;7.25;;;;;;;6.37;100.00;101040.34;12694772;23;20152;-81
2022/11/04 19:23:13;;;;;;;15.20;5.95;;;;;;;6.15;100.00;101016.09;12699976;23;20380;-81
2022/11/04 19:28:13;;;;;;;16.27;5.18;;;;;;;6.34;100.00;101062.63;12735764;23;20020;-82
2022/11/04 19:33:14;;;;;;;17.95;6.45;;;;;;;6.31;100.00;101060.38;12796273;23;20062;-83
2022/11/04 19:38:16;;;;;;;14.68;5.10;;;;;;;6.35;100.00;101053.38;12767035;23;20013;-82
2022/11/04 19:43:20;;;;;;;19.92;5.43;;;;;;;6.36;100.00;101071.47;12776854;23;20010;-80
2022/11/04 19:48:21;;;;;;;14.10;5.95;;;;;;;6.33;100.00;101074.66;12777869;23;20013;-81
2022/11/04 19:53:21;;;;;;;12.52;4.93;;;;;;;5.94;100.00;101030.91;12796207;23;20028;-81
2022/11/04 19:58:22;;;;;;;18.75;5.63;;;;;;;6.00;100.00;101053.84;12739181;23;20025;-81
2022/11/04 20:03:23;;;;;;;13.45;3.92;;;;;;;6.30;100.00;101094.22;12744354;23;20036;-82
2022/11/04 20:08:23;;;;;;;13.45;4.65;;;;;;;6.28;100.00;101099.91;12744394;23;20009;-82
2022/11/04 20:18:44;;;;;;;10.68;4.50;;;;;;;6.23;100.00;101110.66;12727186;23;20064;-81
2022/11/04 20:23:45;;;;;;;20.70;5.53;;;;;;;6.17;100.00;101123.31;12742184;23;20048;-82
2022/11/04 20:28:46;;;;;;;14.65;4.00;;;;;;;6.25;100.00;101124.97;12743548;23;20037;-80
2022/11/04 20:33:47;;;;;;;14.07;4.55;;;;;;;6.23;100.00;101132.53;12721778;23;20029;-81
2022/11/04 20:38:47;;;;;;;11.63;4.82;;;;;;;5.72;100.00;101067.81;12730516;23;20020;-81
2022/11/04 20:43:48;;;;;;;25.85;8.95;;;;;;;5.92;100.00;101119.66;12751771;23;20017;-81
2022/11/04 20:48:49;;;;;;;25.30;8.88;;;;;;;6.09;100.00;101159.09;12718424;23;20029;-81
2022/11/04 20:53:54;;;;;;;15.48;5.90;;;;;;;5.88;100.00;101121.97;12744286;23;20017;-82
2022/11/04 20:58:55;;;;;;;11.87;3.33;;;;;;;5.82;100.00;101142.78;12721075;23;20017;-81
2022/11/04 21:03:59;;;;;;;16.67;5.03;;;;;;;5.91;100.00;101165.25;12743759;23;20439;-82
2022/11/04 21:09:00;;;;;;;18.75;5.97;;;;;;;5.89;100.00;101182.91;12767871;23;20032;-82
2022/11/04 21:14:05;;;;;;;17.20;6.45;;;;;;;5.69;100.00;101181.09;12729685;23;20342;-81
2022/11/04 21:19:06;;;;;;;15.43;5.40;;;;;;;5.67;100.00;101194.13;12715806;23;20009;-81
2022/11/04 21:24:09;;;;;;;20.85;7.47;;;;;;;5.62;100.00;101202.09;12712807;23;20020;-81
2022/11/04 21:29:11;;;;;;;22.60;7.97;;;;;;;5.30;100.00;101166.47;12700673;23;20020;-81
2022/11/04 21:34:12;;;;;;;17.98;8.60;;;;;;;5.47;100.00;101219.56;12678048;23;20017;-81
2022/11/04 21:39:12;;;;;;;22.90;12.07;;;;;;;4.49;100.00;101074.81;12718110;23;20064;-81
2022/11/04 21:44:13;;;;;;;30.55;14.38;;;;;;;5.29;100.00;101224.84;12647103;23;20009;-80
2022/11/04 21:49:14;;;;;;;34.25;12.50;;;;;;;5.26;100.00;101241.66;12705636;23;20069;-81
2022/11/04 21:54:15;;;;;;;28.90;12.55;;;;;;;5.19;100.00;101251.75;12728528;23;20028;-80
2022/11/04 21:59:16;;;;;;;27.58;12.10;;;;;;;5.17;100.00;101260.13;12738422;23;20364;-81
2022/11/04 22:04:16;;;;;;;22.58;10.43;;;;;;;4.72;100.00;101196.28;12689731;23;20462;-80
2022/11/04 22:09:17;;;;;;;25.38;9.88;;;;;;;5.03;100.00;101261.16;12660790;23;20025;-81
2022/11/04 22:14:17;;;;;;;19.42;10.77;;;;;;;4.54;100.00;101194.16;12677212;23;20017;-79
2022/11/04 22:19:19;;;;;;;22.27;9.63;;;;;;;4.92;100.00;101268.09;12715412;23;20025;-81
2022/11/04 22:24:20;;;;;;;24.77;8.85;;;;;;;5.05;100.00;101289.94;12711670;23;20131;-81
2022/11/04 22:29:20;;;;;;;19.73;8.00;;;;;;;5.08;100.00;101282.38;12740476;23;20028;-80
2022/11/04 22:34:21;;;;;;;24.23;7.53;;;;;;;4.96;100.00;101273.94;12734515;23;20016;-83
2022/11/04 22:39:22;;;;;;;19.05;6.72;;;;;;;4.94;100.00;101285.09;12691278;23;20010;-82
2022/11/04 22:44:22;;;;;;;19.95;6.63;;;;;;;4.73;100.00;101268.88;12678038;23;20040;-81
2022/11/04 22:49:23;;;;;;;31.90;9.13;;;;;;;4.88;100.00;101285.91;12746403;23;20013;-81
2022/11/04 22:54:23;;;;;;;19.80;7.90;;;;;;;4.83;100.00;101280.22;12768540;23;20032;-81
2022/11/04 22:59:24;;;;;;;17.95;7.80;;;;;;;4.81;100.00;101290.50;12770236;23;20024;-82
2022/11/04 23:04:24;;;;;;;15.70;6.70;;;;;;;4.83;100.00;101307.50;12746959;23;20009;-82
2022/11/04 23:09:25;;;;;;;21.10;6.93;;;;;;;4.52;100.00;101254.34;12745636;23;20316;-81
2022/11/04 23:19:44;;;;;;;23.67;6.38;;;;;;;4.80;100.00;101313.38;12766223;23;20070;-81
2022/11/04 23:25:04;;;;;;;14.93;5.50;;;;;;;4.41;100.00;101249.50;12675657;23;20013;-83
2022/11/04 23:30:20;;;;;;;19.65;6.38;;;;;;;4.86;100.00;101334.38;12760035;23;20013;-81
